Aberdeen, Ohio
Current Conditions -  °F | °C
As of 5:55 AM on Tuesday 21 Oct 2014 (Local Time) from KFGX Reporting Station
Broken Clouds Broken Clouds  
Wind Chill: 47°   Ceiling: 4900
Heat Index: 49°   Visibility: 7mi
Dew Point: 48°   Wind: 6mph
Humidity: 97%   Direction: 300°WNW
Pressure: 29.94"   Gusts: NA
Location:  38.66°N, 83.76°W
Report Text: KFGX 210955Z AUTO 30005KT 7SM BKN049 BKN055 BKN070 10/09 A2994 RMK AO2 T00950090
Loading
Personal Weather Stations






























Interactive Weather Map
Tropical Storm Tracking
New forecast layout! Learn more

10-Day Weather Forecast

Advertisements
Track Severe Weather on mobile